sensor_id;sensor_type;location;lat;lon;timestamp;pressure;altitude;pressure_sealevel;temperature;humidity
62948;BME280;51940;52.126;-0.994;2023-02-12T00:02:07;102720.30;;;7.09;100.00
62948;BME280;51940;52.126;-0.994;2023-02-12T00:04:33;102718.56;;;7.05;100.00
62948;BME280;51940;52.126;-0.994;2023-02-12T00:06:59;102717.78;;;7.02;100.00
62948;BME280;51940;52.126;-0.994;2023-02-12T00:09:24;102716.98;;;6.99;100.00
62948;BME280;51940;52.126;-0.994;2023-02-12T00:14:14;102708.33;;;7.00;100.00
62948;BME280;51940;52.126;-0.994;2023-02-12T00:16:40;102707.45;;;7.01;100.00
62948;BME280;51940;52.126;-0.994;2023-02-12T00:19:05;102710.60;;;6.99;100.00
62948;BME280;51940;52.126;-0.994;2023-02-12T00:21:31;102706.10;;;6.97;100.00
62948;BME280;51940;52.126;-0.994;2023-02-12T00:23:56;102705.95;;;6.98;100.00
62948;BME280;51940;52.126;-0.994;2023-02-12T00:26:22;102702.94;;;6.98;100.00
62948;BME280;51940;52.126;-0.994;2023-02-12T00:28:48;102710.70;;;6.97;100.00
62948;BME280;51940;52.126;-0.994;2023-02-12T00:31:17;102711.36;;;6.95;100.00
62948;BME280;51940;52.126;-0.994;2023-02-12T00:33:43;102707.45;;;6.94;100.00
62948;BME280;51940;52.126;-0.994;2023-02-12T00:36:13;102702.83;;;6.94;100.00
62948;BME280;51940;52.126;-0.994;2023-02-12T00:38:39;102715.46;;;6.95;100.00
62948;BME280;51940;52.126;-0.994;2023-02-12T00:41:04;102716.03;;;6.97;100.00
62948;BME280;51940;52.126;-0.994;2023-02-12T00:43:30;102717.10;;;6.97;100.00
62948;BME280;51940;52.126;-0.994;2023-02-12T00:45:55;102715.63;;;6.95;100.00
62948;BME280;51940;52.126;-0.994;2023-02-12T00:48:20;102721.79;;;6.93;100.00
62948;BME280;51940;52.126;-0.994;2023-02-12T00:50:47;102718.30;;;6.89;100.00
62948;BME280;51940;52.126;-0.994;2023-02-12T00:53:13;102714.19;;;6.88;100.00
62948;BME280;51940;52.126;-0.994;2023-02-12T00:55:39;102719.04;;;6.84;100.00
62948;BME280;51940;52.126;-0.994;2023-02-12T00:58:05;102726.23;;;6.82;100.00
62948;BME280;51940;52.126;-0.994;2023-02-12T01:00:30;102729.56;;;6.79;100.00
62948;BME280;51940;52.126;-0.994;2023-02-12T01:02:56;102727.63;;;6.80;100.00
62948;BME280;51940;52.126;-0.994;2023-02-12T01:05:21;102722.64;;;6.79;100.00
62948;BME280;51940;52.126;-0.994;2023-02-12T01:07:51;102721.47;;;6.76;100.00
62948;BME280;51940;52.126;-0.994;2023-02-12T01:10:18;102730.51;;;6.75;100.00
62948;BME280;51940;52.126;-0.994;2023-02-12T01:12:45;102730.05;;;6.78;100.00
62948;BME280;51940;52.126;-0.994;2023-02-12T01:15:11;102729.86;;;6.77;100.00
62948;BME280;51940;52.126;-0.994;2023-02-12T01:17:37;102731.30;;;6.72;100.00
62948;BME280;51940;52.126;-0.994;2023-02-12T01:20:04;102727.23;;;6.67;100.00
62948;BME280;51940;52.126;-0.994;2023-02-12T01:22:33;102722.92;;;6.65;100.00
62948;BME280;51940;52.126;-0.994;2023-02-12T01:24:58;102726.89;;;6.67;100.00
62948;BME280;51940;52.126;-0.994;2023-02-12T01:27:24;102723.92;;;6.68;100.00
62948;BME280;51940;52.126;-0.994;2023-02-12T01:29:49;102720.17;;;6.67;100.00
62948;BME280;51940;52.126;-0.994;2023-02-12T01:32:15;102724.08;;;6.67;100.00
62948;BME280;51940;52.126;-0.994;2023-02-12T01:34:40;102726.03;;;6.67;100.00
62948;BME280;51940;52.126;-0.994;2023-02-12T01:37:05;102723.84;;;6.66;100.00
62948;BME280;51940;52.126;-0.994;2023-02-12T01:39:33;102723.99;;;6.66;100.00
62948;BME280;51940;52.126;-0.994;2023-02-12T01:42:00;102729.48;;;6.65;100.00
62948;BME280;51940;52.126;-0.994;2023-02-12T01:44:28;102719.70;;;6.64;100.00
62948;BME280;51940;52.126;-0.994;2023-02-12T01:47:04;102713.80;;;6.62;100.00
62948;BME280;51940;52.126;-0.994;2023-02-12T01:49:37;102714.36;;;6.63;100.00
62948;BME280;51940;52.126;-0.994;2023-02-12T01:52:11;102711.95;;;6.66;100.00
62948;BME280;51940;52.126;-0.994;2023-02-12T01:54:38;102711.16;;;6.69;100.00
62948;BME280;51940;52.126;-0.994;2023-02-12T01:57:05;102703.70;;;6.68;100.00
62948;BME280;51940;52.126;-0.994;2023-02-12T01:59:32;102702.48;;;6.64;100.00
62948;BME280;51940;52.126;-0.994;2023-02-12T02:01:58;102709.05;;;6.63;100.00
62948;BME280;51940;52.126;-0.994;2023-02-12T02:04:27;102709.11;;;6.66;100.00
62948;BME280;51940;52.126;-0.994;2023-02-12T02:07:00;102707.77;;;6.62;100.00
62948;BME280;51940;52.126;-0.994;2023-02-12T02:09:28;102712.36;;;6.61;100.00
62948;BME280;51940;52.126;-0.994;2023-02-12T02:11:54;102710.94;;;6.61;100.00
62948;BME280;51940;52.126;-0.994;2023-02-12T02:14:39;102703.34;;;6.62;100.00
62948;BME280;51940;52.126;-0.994;2023-02-12T02:19:55;102705.81;;;6.62;100.00
62948;BME280;51940;52.126;-0.994;2023-02-12T02:35:52;102712.55;;;6.62;100.00
62948;BME280;51940;52.126;-0.994;2023-02-12T02:43:32;102716.52;;;6.65;100.00
62948;BME280;51940;52.126;-0.994;2023-02-12T02:46:07;102715.25;;;6.63;100.00
62948;BME280;51940;52.126;-0.994;2023-02-12T02:48:53;102714.34;;;6.63;100.00
62948;BME280;51940;52.126;-0.994;2023-02-12T02:51:25;102708.76;;;6.59;100.00
62948;BME280;51940;52.126;-0.994;2023-02-12T02:53:57;102710.94;;;6.56;100.00
62948;BME280;51940;52.126;-0.994;2023-02-12T02:56:26;102714.07;;;6.53;100.00
62948;BME280;51940;52.126;-0.994;2023-02-12T02:59:05;102706.19;;;6.51;100.00
62948;BME280;51940;52.126;-0.994;2023-02-12T03:01:36;102703.27;;;6.48;100.00
62948;BME280;51940;52.126;-0.994;2023-02-12T03:04:26;102701.71;;;6.49;100.00
62948;BME280;51940;52.126;-0.994;2023-02-12T03:07:08;102699.27;;;6.50;100.00
62948;BME280;51940;52.126;-0.994;2023-02-12T03:09:46;102695.47;;;6.48;100.00
62948;BME280;51940;52.126;-0.994;2023-02-12T03:12:18;102698.76;;;6.45;100.00
62948;BME280;51940;52.126;-0.994;2023-02-12T03:14:53;102701.13;;;6.47;100.00
62948;BME280;51940;52.126;-0.994;2023-02-12T03:17:29;102693.60;;;6.50;100.00
62948;BME280;51940;52.126;-0.994;2023-02-12T03:20:03;102690.61;;;6.51;100.00
62948;BME280;51940;52.126;-0.994;2023-02-12T03:22:33;102696.84;;;6.52;100.00
62948;BME280;51940;52.126;-0.994;2023-02-12T03:25:22;102700.40;;;6.53;100.00
62948;BME280;51940;52.126;-0.994;2023-02-12T03:28:00;102702.48;;;6.50;100.00
62948;BME280;51940;52.126;-0.994;2023-02-12T03:31:18;102700.88;;;6.50;100.00
62948;BME280;51940;52.126;-0.994;2023-02-12T03:33:28;102703.06;;;6.47;100.00
62948;BME280;51940;52.126;-0.994;2023-02-12T03:36:09;102699.50;;;6.47;100.00
62948;BME280;51940;52.126;-0.994;2023-02-12T03:38:45;102701.80;;;6.46;100.00
62948;BME280;51940;52.126;-0.994;2023-02-12T03:43:52;102703.19;;;6.45;100.00
62948;BME280;51940;52.126;-0.994;2023-02-12T03:49:11;102702.27;;;6.44;100.00
62948;BME280;51940;52.126;-0.994;2023-02-12T03:51:43;102702.84;;;6.45;100.00
62948;BME280;51940;52.126;-0.994;2023-02-12T03:54:11;102701.11;;;6.47;100.00
62948;BME280;51940;52.126;-0.994;2023-02-12T03:56:42;102695.39;;;6.45;100.00
62948;BME280;51940;52.126;-0.994;2023-02-12T03:59:09;102697.41;;;6.42;100.00
62948;BME280;51940;52.126;-0.994;2023-02-12T04:01:36;102703.85;;;6.38;100.00
62948;BME280;51940;52.126;-0.994;2023-02-12T04:04:06;102707.72;;;6.37;100.00
62948;BME280;51940;52.126;-0.994;2023-02-12T04:06:32;102701.48;;;6.36;100.00
62948;BME280;51940;52.126;-0.994;2023-02-12T04:09:02;102703.02;;;6.34;100.00
62948;BME280;51940;52.126;-0.994;2023-02-12T04:16:37;102711.40;;;6.35;100.00
62948;BME280;51940;52.126;-0.994;2023-02-12T04:19:05;102713.36;;;6.36;100.00
62948;BME280;51940;52.126;-0.994;2023-02-12T04:21:43;102712.46;;;6.35;100.00
62948;BME280;51940;52.126;-0.994;2023-02-12T04:32:27;102709.77;;;6.29;100.00
62948;BME280;51940;52.126;-0.994;2023-02-12T04:37:43;102704.41;;;6.21;100.00
62948;BME280;51940;52.126;-0.994;2023-02-12T04:40:16;102705.42;;;6.19;100.00
62948;BME280;51940;52.126;-0.994;2023-02-12T04:42:43;102707.58;;;6.20;100.00
62948;BME280;51940;52.126;-0.994;2023-02-12T04:45:15;102706.39;;;6.22;100.00
62948;BME280;51940;52.126;-0.994;2023-02-12T04:47:44;102710.73;;;6.25;100.00
62948;BME280;51940;52.126;-0.994;2023-02-12T04:50:09;102714.98;;;6.25;100.00
62948;BME280;51940;52.126;-0.994;2023-02-12T04:52:35;102711.48;;;6.20;100.00
62948;BME280;51940;52.126;-0.994;2023-02-12T04:55:00;102713.44;;;6.21;100.00
62948;BME280;51940;52.126;-0.994;2023-02-12T04:57:26;102714.21;;;6.23;100.00
62948;BME280;51940;52.126;-0.994;2023-02-12T04:59:51;102714.34;;;6.22;100.00
62948;BME280;51940;52.126;-0.994;2023-02-12T05:02:16;102711.27;;;6.19;100.00
62948;BME280;51940;52.126;-0.994;2023-02-12T05:04:42;102717.80;;;6.18;100.00
62948;BME280;51940;52.126;-0.994;2023-02-12T05:07:07;102720.98;;;6.18;100.00
62948;BME280;51940;52.126;-0.994;2023-02-12T05:09:32;102719.76;;;6.19;100.00
62948;BME280;51940;52.126;-0.994;2023-02-12T05:11:58;102715.55;;;6.20;100.00
62948;BME280;51940;52.126;-0.994;2023-02-12T05:14:24;102720.52;;;6.20;100.00
62948;BME280;51940;52.126;-0.994;2023-02-12T05:16:50;102717.34;;;6.21;100.00
62948;BME280;51940;52.126;-0.994;2023-02-12T05:19:15;102712.94;;;6.22;100.00
62948;BME280;51940;52.126;-0.994;2023-02-12T05:21:40;102711.00;;;6.22;100.00
62948;BME280;51940;52.126;-0.994;2023-02-12T05:24:06;102718.27;;;6.22;100.00
62948;BME280;51940;52.126;-0.994;2023-02-12T05:26:32;102715.42;;;6.22;100.00
62948;BME280;51940;52.126;-0.994;2023-02-12T05:28:58;102714.84;;;6.20;100.00
62948;BME280;51940;52.126;-0.994;2023-02-12T05:31:23;102712.19;;;6.20;100.00
62948;BME280;51940;52.126;-0.994;2023-02-12T05:33:49;102710.80;;;6.21;100.00
62948;BME280;51940;52.126;-0.994;2023-02-12T05:36:21;102711.52;;;6.22;100.00
62948;BME280;51940;52.126;-0.994;2023-02-12T05:38:47;102710.66;;;6.23;100.00
62948;BME280;51940;52.126;-0.994;2023-02-12T05:41:15;102710.27;;;6.22;100.00
62948;BME280;51940;52.126;-0.994;2023-02-12T05:43:41;102703.12;;;6.20;100.00
62948;BME280;51940;52.126;-0.994;2023-02-12T05:46:07;102702.33;;;6.16;100.00
62948;BME280;51940;52.126;-0.994;2023-02-12T05:48:34;102704.95;;;6.15;100.00
62948;BME280;51940;52.126;-0.994;2023-02-12T05:51:01;102701.63;;;6.17;100.00
62948;BME280;51940;52.126;-0.994;2023-02-12T05:53:27;102698.05;;;6.16;100.00
62948;BME280;51940;52.126;-0.994;2023-02-12T05:55:52;102702.19;;;6.13;100.00
62948;BME280;51940;52.126;-0.994;2023-02-12T05:58:17;102695.95;;;6.11;100.00
62948;BME280;51940;52.126;-0.994;2023-02-12T06:00:43;102697.54;;;6.11;100.00
62948;BME280;51940;52.126;-0.994;2023-02-12T06:03:08;102694.38;;;6.12;100.00
62948;BME280;51940;52.126;-0.994;2023-02-12T06:05:34;102695.14;;;6.14;100.00
62948;BME280;51940;52.126;-0.994;2023-02-12T06:07:59;102698.75;;;6.15;100.00
62948;BME280;51940;52.126;-0.994;2023-02-12T06:10:24;102693.98;;;6.16;100.00
62948;BME280;51940;52.126;-0.994;2023-02-12T06:12:54;102692.00;;;6.15;100.00
62948;BME280;51940;52.126;-0.994;2023-02-12T06:15:19;102690.75;;;6.14;100.00
62948;BME280;51940;52.126;-0.994;2023-02-12T06:17:45;102684.44;;;6.11;100.00
62948;BME280;51940;52.126;-0.994;2023-02-12T06:20:10;102683.50;;;6.10;100.00
62948;BME280;51940;52.126;-0.994;2023-02-12T06:22:35;102684.40;;;6.10;100.00
62948;BME280;51940;52.126;-0.994;2023-02-12T06:25:03;102685.66;;;6.11;100.00
62948;BME280;51940;52.126;-0.994;2023-02-12T06:27:28;102684.73;;;6.09;100.00
62948;BME280;51940;52.126;-0.994;2023-02-12T06:29:54;102684.17;;;6.08;100.00
62948;BME280;51940;52.126;-0.994;2023-02-12T06:32:19;102682.59;;;6.08;100.00
62948;BME280;51940;52.126;-0.994;2023-02-12T06:34:44;102684.73;;;6.09;100.00
62948;BME280;51940;52.126;-0.994;2023-02-12T06:37:11;102683.86;;;6.10;100.00
62948;BME280;51940;52.126;-0.994;2023-02-12T06:39:36;102681.71;;;6.09;100.00
62948;BME280;51940;52.126;-0.994;2023-02-12T06:42:02;102683.83;;;6.08;100.00
62948;BME280;51940;52.126;-0.994;2023-02-12T06:44:27;102682.76;;;6.08;100.00
62948;BME280;51940;52.126;-0.994;2023-02-12T06:46:53;102686.47;;;6.08;100.00
62948;BME280;51940;52.126;-0.994;2023-02-12T06:49:18;102689.59;;;6.06;100.00
62948;BME280;51940;52.126;-0.994;2023-02-12T06:51:43;102687.44;;;6.06;100.00
62948;BME280;51940;52.126;-0.994;2023-02-12T06:54:12;102685.31;;;6.05;100.00
62948;BME280;51940;52.126;-0.994;2023-02-12T06:56:38;102684.77;;;6.05;100.00
62948;BME280;51940;52.126;-0.994;2023-02-12T06:59:03;102686.70;;;6.05;100.00
62948;BME280;51940;52.126;-0.994;2023-02-12T07:01:29;102691.28;;;6.04;100.00
62948;BME280;51940;52.126;-0.994;2023-02-12T07:04:00;102691.81;;;6.04;100.00
62948;BME280;51940;52.126;-0.994;2023-02-12T07:06:27;102687.90;;;6.03;100.00
62948;BME280;51940;52.126;-0.994;2023-02-12T07:08:54;102690.19;;;6.03;100.00
62948;BME280;51940;52.126;-0.994;2023-02-12T07:11:29;102688.95;;;6.03;100.00
62948;BME280;51940;52.126;-0.994;2023-02-12T07:13:55;102694.27;;;6.03;100.00
62948;BME280;51940;52.126;-0.994;2023-02-12T07:16:20;102696.92;;;6.03;100.00
62948;BME280;51940;52.126;-0.994;2023-02-12T07:18:46;102701.68;;;6.02;100.00
62948;BME280;51940;52.126;-0.994;2023-02-12T07:21:13;102700.56;;;6.00;100.00
62948;BME280;51940;52.126;-0.994;2023-02-12T07:23:39;102702.27;;;5.98;100.00
62948;BME280;51940;52.126;-0.994;2023-02-12T07:26:07;102708.91;;;5.96;100.00
62948;BME280;51940;52.126;-0.994;2023-02-12T07:28:33;102708.33;;;5.94;100.00
62948;BME280;51940;52.126;-0.994;2023-02-12T07:31:01;102709.89;;;5.92;100.00
62948;BME280;51940;52.126;-0.994;2023-02-12T07:33:29;102718.40;;;5.93;100.00
62948;BME280;51940;52.126;-0.994;2023-02-12T07:35:59;102718.41;;;5.93;100.00
62948;BME280;51940;52.126;-0.994;2023-02-12T07:38:24;102723.76;;;5.95;100.00
62948;BME280;51940;52.126;-0.994;2023-02-12T07:40:49;102721.68;;;5.96;100.00
62948;BME280;51940;52.126;-0.994;2023-02-12T07:43:15;102719.89;;;5.96;100.00
62948;BME280;51940;52.126;-0.994;2023-02-12T07:45:40;102717.94;;;5.95;100.00
62948;BME280;51940;52.126;-0.994;2023-02-12T07:48:05;102724.69;;;5.96;100.00
62948;BME280;51940;52.126;-0.994;2023-02-12T07:50:31;102721.84;;;5.96;100.00
62948;BME280;51940;52.126;-0.994;2023-02-12T07:52:56;102720.24;;;5.96;100.00
62948;BME280;51940;52.126;-0.994;2023-02-12T07:55:22;102718.30;;;5.96;100.00
62948;BME280;51940;52.126;-0.994;2023-02-12T07:57:47;102720.30;;;5.98;100.00
62948;BME280;51940;52.126;-0.994;2023-02-12T08:00:13;102725.71;;;6.00;100.00
62948;BME280;51940;52.126;-0.994;2023-02-12T08:02:38;102731.20;;;6.00;100.00
62948;BME280;51940;52.126;-0.994;2023-02-12T08:05:05;102728.38;;;6.00;100.00
62948;BME280;51940;52.126;-0.994;2023-02-12T08:07:30;102728.19;;;6.00;100.00
62948;BME280;51940;52.126;-0.994;2023-02-12T08:09:56;102731.05;;;6.01;100.00
62948;BME280;51940;52.126;-0.994;2023-02-12T08:12:21;102728.80;;;6.03;100.00
62948;BME280;51940;52.126;-0.994;2023-02-12T08:14:48;102732.73;;;6.03;100.00
62948;BME280;51940;52.126;-0.994;2023-02-12T08:17:16;102731.48;;;6.04;100.00
62948;BME280;51940;52.126;-0.994;2023-02-12T08:19:41;102730.60;;;6.04;100.00
62948;BME280;51940;52.126;-0.994;2023-02-12T08:22:07;102735.77;;;6.05;100.00
62948;BME280;51940;52.126;-0.994;2023-02-12T08:24:32;102741.63;;;6.05;100.00
62948;BME280;51940;52.126;-0.994;2023-02-12T08:26:58;102740.08;;;6.06;100.00
62948;BME280;51940;52.126;-0.994;2023-02-12T08:29:28;102738.74;;;6.08;100.00
62948;BME280;51940;52.126;-0.994;2023-02-12T08:32:02;102737.23;;;6.11;100.00
62948;BME280;51940;52.126;-0.994;2023-02-12T08:34:30;102735.33;;;6.13;100.00
62948;BME280;51940;52.126;-0.994;2023-02-12T08:36:56;102739.67;;;6.15;100.00
62948;BME280;51940;52.126;-0.994;2023-02-12T08:39:23;102734.09;;;6.18;100.00
62948;BME280;51940;52.126;-0.994;2023-02-12T08:41:49;102736.78;;;6.19;100.00
62948;BME280;51940;52.126;-0.994;2023-02-12T08:44:17;102740.94;;;6.22;100.00
62948;BME280;51940;52.126;-0.994;2023-02-12T08:46:45;102740.16;;;6.25;100.00
62948;BME280;51940;52.126;-0.994;2023-02-12T08:49:13;102741.83;;;6.28;100.00
62948;BME280;51940;52.126;-0.994;2023-02-12T08:51:43;102743.95;;;6.28;100.00
62948;BME280;51940;52.126;-0.994;2023-02-12T08:54:12;102743.84;;;6.30;100.00
62948;BME280;51940;52.126;-0.994;2023-02-12T08:56:38;102738.21;;;6.32;100.00
62948;BME280;51940;52.126;-0.994;2023-02-12T08:59:05;102741.32;;;6.34;100.00
62948;BME280;51940;52.126;-0.994;2023-02-12T09:01:33;102740.02;;;6.38;100.00
62948;BME280;51940;52.126;-0.994;2023-02-12T09:03:59;102740.02;;;6.44;100.00
62948;BME280;51940;52.126;-0.994;2023-02-12T09:06:25;102744.43;;;6.49;100.00
62948;BME280;51940;52.126;-0.994;2023-02-12T09:08:52;102743.36;;;6.55;100.00
62948;BME280;51940;52.126;-0.994;2023-02-12T09:11:20;102740.89;;;6.61;100.00
62948;BME280;51940;52.126;-0.994;2023-02-12T09:13:58;102742.29;;;6.66;100.00
62948;BME280;51940;52.126;-0.994;2023-02-12T09:16:25;102737.48;;;6.71;100.00
62948;BME280;51940;52.126;-0.994;2023-02-12T09:18:51;102738.36;;;6.76;100.00
62948;BME280;51940;52.126;-0.994;2023-02-12T09:21:17;102740.22;;;6.80;100.00
62948;BME280;51940;52.126;-0.994;2023-02-12T09:23:44;102743.36;;;6.84;100.00
62948;BME280;51940;52.126;-0.994;2023-02-12T09:26:12;102739.86;;;6.86;100.00
62948;BME280;51940;52.126;-0.994;2023-02-12T09:28:39;102742.19;;;6.87;100.00
62948;BME280;51940;52.126;-0.994;2023-02-12T09:31:13;102737.08;;;6.88;100.00
62948;BME280;51940;52.126;-0.994;2023-02-12T09:33:40;102738.09;;;6.93;100.00
62948;BME280;51940;52.126;-0.994;2023-02-12T09:36:08;102739.98;;;6.97;100.00
62948;BME280;51940;52.126;-0.994;2023-02-12T09:38:34;102737.45;;;7.01;100.00
62948;BME280;51940;52.126;-0.994;2023-02-12T09:52:16;102731.04;;;7.26;100.00
62948;BME280;51940;52.126;-0.994;2023-02-12T09:54:42;102730.64;;;7.31;100.00
62948;BME280;51940;52.126;-0.994;2023-02-12T09:57:35;102728.39;;;7.33;100.00
62948;BME280;51940;52.126;-0.994;2023-02-12T10:00:12;102724.42;;;7.38;100.00
62948;BME280;51940;52.126;-0.994;2023-02-12T10:02:39;102727.36;;;7.42;100.00
62948;BME280;51940;52.126;-0.994;2023-02-12T10:05:17;102731.74;;;7.46;100.00
62948;BME280;51940;52.126;-0.994;2023-02-12T10:18:53;102726.06;;;7.60;100.00
62948;BME280;51940;52.126;-0.994;2023-02-12T10:26:41;102724.77;;;7.72;100.00
62948;BME280;51940;52.126;-0.994;2023-02-12T10:29:15;102729.09;;;7.74;100.00
62948;BME280;51940;52.126;-0.994;2023-02-12T10:31:45;102727.67;;;7.74;100.00
62948;BME280;51940;52.126;-0.994;2023-02-12T10:34:24;102732.24;;;7.79;100.00
62948;BME280;51940;52.126;-0.994;2023-02-12T10:36:50;102730.55;;;7.83;100.00
62948;BME280;51940;52.126;-0.994;2023-02-12T10:39:23;102729.21;;;7.85;100.00
62948;BME280;51940;52.126;-0.994;2023-02-12T10:44:16;102723.63;;;7.97;100.00
62948;BME280;51940;52.126;-0.994;2023-02-12T10:46:41;102725.88;;;8.03;100.00
62948;BME280;51940;52.126;-0.994;2023-02-12T10:49:10;102719.06;;;8.07;100.00
62948;BME280;51940;52.126;-0.994;2023-02-12T10:57:07;102719.83;;;8.25;100.00
62948;BME280;51940;52.126;-0.994;2023-02-12T10:59:34;102719.81;;;8.32;100.00
62948;BME280;51940;52.126;-0.994;2023-02-12T11:02:00;102724.02;;;8.36;100.00
62948;BME280;51940;52.126;-0.994;2023-02-12T11:04:28;102718.64;;;8.41;100.00
62948;BME280;51940;52.126;-0.994;2023-02-12T11:07:05;102717.34;;;8.46;100.00
62948;BME280;51940;52.126;-0.994;2023-02-12T11:09:40;102719.91;;;8.51;100.00
62948;BME280;51940;52.126;-0.994;2023-02-12T11:15:23;102715.83;;;8.60;100.00
62948;BME280;51940;52.126;-0.994;2023-02-12T11:17:58;102719.85;;;8.64;100.00
62948;BME280;51940;52.126;-0.994;2023-02-12T11:20:29;102721.55;;;8.69;100.00
62948;BME280;51940;52.126;-0.994;2023-02-12T11:23:02;102717.02;;;8.74;100.00
62948;BME280;51940;52.126;-0.994;2023-02-12T11:25:35;102712.63;;;8.76;100.00
62948;BME280;51940;52.126;-0.994;2023-02-12T11:28:13;102716.22;;;8.79;100.00
62948;BME280;51940;52.126;-0.994;2023-02-12T11:30:56;102713.05;;;8.80;100.00
62948;BME280;51940;52.126;-0.994;2023-02-12T11:33:33;102713.48;;;8.83;100.00
62948;BME280;51940;52.126;-0.994;2023-02-12T11:36:11;102709.41;;;8.85;100.00
62948;BME280;51940;52.126;-0.994;2023-02-12T11:38:56;102708.90;;;8.86;100.00
62948;BME280;51940;52.126;-0.994;2023-02-12T11:41:42;102703.05;;;8.87;100.00
62948;BME280;51940;52.126;-0.994;2023-02-12T11:44:29;102694.21;;;8.89;100.00
62948;BME280;51940;52.126;-0.994;2023-02-12T11:47:01;102690.88;;;8.92;100.00
62948;BME280;51940;52.126;-0.994;2023-02-12T11:49:37;102696.40;;;8.92;100.00
62948;BME280;51940;52.126;-0.994;2023-02-12T11:52:04;102695.88;;;8.93;100.00
62948;BME280;51940;52.126;-0.994;2023-02-12T11:54:39;102695.71;;;8.94;100.00
62948;BME280;51940;52.126;-0.994;2023-02-12T11:57:05;102698.92;;;8.94;100.00
62948;BME280;51940;52.126;-0.994;2023-02-12T11:59:40;102695.19;;;8.95;100.00
62948;BME280;51940;52.126;-0.994;2023-02-12T12:02:33;102695.10;;;8.98;100.00
62948;BME280;51940;52.126;-0.994;2023-02-12T12:05:12;102689.90;;;8.97;100.00
62948;BME280;51940;52.126;-0.994;2023-02-12T12:10:12;102681.79;;;9.00;100.00
62948;BME280;51940;52.126;-0.994;2023-02-12T12:12:47;102681.13;;;9.03;100.00
62948;BME280;51940;52.126;-0.994;2023-02-12T12:15:27;102679.52;;;9.03;100.00
62948;BME280;51940;52.126;-0.994;2023-02-12T12:21:28;102675.63;;;9.04;100.00
62948;BME280;51940;52.126;-0.994;2023-02-12T12:26:30;102669.98;;;9.07;100.00
62948;BME280;51940;52.126;-0.994;2023-02-12T12:31:34;102662.02;;;9.09;100.00
62948;BME280;51940;52.126;-0.994;2023-02-12T12:34:17;102662.95;;;9.13;100.00
62948;BME280;51940;52.126;-0.994;2023-02-12T12:37:05;102663.73;;;9.15;100.00
62948;BME280;51940;52.126;-0.994;2023-02-12T12:50:35;102635.48;;;9.18;100.00
62948;BME280;51940;52.126;-0.994;2023-02-12T12:56:01;102631.36;;;9.17;100.00
62948;BME280;51940;52.126;-0.994;2023-02-12T13:07:18;102615.21;;;9.21;100.00
62948;BME280;51940;52.126;-0.994;2023-02-12T13:10:00;102616.52;;;9.23;100.00
62948;BME280;51940;52.126;-0.994;2023-02-12T13:15:32;102619.39;;;9.24;100.00
62948;BME280;51940;52.126;-0.994;2023-02-12T13:18:19;102616.85;;;9.22;100.00
62948;BME280;51940;52.126;-0.994;2023-02-12T13:23:52;102608.88;;;9.25;100.00
62948;BME280;51940;52.126;-0.994;2023-02-12T13:26:44;102613.15;;;9.24;100.00
62948;BME280;51940;52.126;-0.994;2023-02-12T13:29:22;102611.85;;;9.22;100.00
62948;BME280;51940;52.126;-0.994;2023-02-12T13:32:23;102611.29;;;9.21;100.00
62948;BME280;51940;52.126;-0.994;2023-02-12T13:34:52;102605.58;;;9.20;100.00
62948;BME280;51940;52.126;-0.994;2023-02-12T13:37:25;102600.58;;;9.19;100.00
62948;BME280;51940;52.126;-0.994;2023-02-12T13:39:57;102599.87;;;9.19;100.00
62948;BME280;51940;52.126;-0.994;2023-02-12T13:58:50;102592.41;;;8.99;100.00
62948;BME280;51940;52.126;-0.994;2023-02-12T14:01:38;102586.28;;;8.95;100.00
62948;BME280;51940;52.126;-0.994;2023-02-12T14:06:53;102581.77;;;8.92;100.00
62948;BME280;51940;52.126;-0.994;2023-02-12T14:09:45;102576.90;;;8.88;100.00
62948;BME280;51940;52.126;-0.994;2023-02-12T14:14:50;102582.71;;;8.84;100.00
62948;BME280;51940;52.126;-0.994;2023-02-12T14:20:23;102578.70;;;8.79;100.00
62948;BME280;51940;52.126;-0.994;2023-02-12T14:35:37;102563.53;;;8.57;100.00
62948;BME280;51940;52.126;-0.994;2023-02-12T14:40:51;102562.66;;;8.49;100.00
62948;BME280;51940;52.126;-0.994;2023-02-12T14:43:34;102559.73;;;8.45;100.00
62948;BME280;51940;52.126;-0.994;2023-02-12T14:54:42;102560.28;;;8.37;100.00
62948;BME280;51940;52.126;-0.994;2023-02-12T14:57:21;102560.89;;;8.33;100.00
62948;BME280;51940;52.126;-0.994;2023-02-12T14:59:49;102556.58;;;8.31;100.00
62948;BME280;51940;52.126;-0.994;2023-02-12T15:02:23;102552.98;;;8.29;100.00
62948;BME280;51940;52.126;-0.994;2023-02-12T15:04:53;102552.21;;;8.26;100.00
62948;BME280;51940;52.126;-0.994;2023-02-12T15:08:06;102547.36;;;8.23;100.00
62948;BME280;51940;52.126;-0.994;2023-02-12T15:10:34;102539.06;;;8.18;100.00
62948;BME280;51940;52.126;-0.994;2023-02-12T15:16:08;102533.77;;;8.11;100.00
62948;BME280;51940;52.126;-0.994;2023-02-12T15:21:12;102528.02;;;8.08;100.00
62948;BME280;51940;52.126;-0.994;2023-02-12T15:23:42;102533.66;;;8.06;100.00
62948;BME280;51940;52.126;-0.994;2023-02-12T15:26:21;102534.86;;;8.04;100.00
62948;BME280;51940;52.126;-0.994;2023-02-12T15:28:50;102541.52;;;7.99;100.00
62948;BME280;51940;52.126;-0.994;2023-02-12T15:31:19;102539.53;;;7.97;100.00
62948;BME280;51940;52.126;-0.994;2023-02-12T15:33:48;102536.48;;;7.95;100.00
62948;BME280;51940;52.126;-0.994;2023-02-12T15:36:20;102532.46;;;7.90;100.00
62948;BME280;51940;52.126;-0.994;2023-02-12T15:38:50;102535.06;;;7.87;100.00
62948;BME280;51940;52.126;-0.994;2023-02-12T15:43:49;102530.91;;;7.76;100.00
62948;BME280;51940;52.126;-0.994;2023-02-12T15:46:16;102528.70;;;7.73;100.00
62948;BME280;51940;52.126;-0.994;2023-02-12T15:48:43;102530.45;;;7.71;100.00
62948;BME280;51940;52.126;-0.994;2023-02-12T15:51:22;102526.85;;;7.70;100.00
62948;BME280;51940;52.126;-0.994;2023-02-12T15:53:50;102528.38;;;7.67;100.00
62948;BME280;51940;52.126;-0.994;2023-02-12T15:56:21;102527.77;;;7.62;100.00